Time;durP1;ratioP1;P1;durP2;ratioP2;P2;SDS_P1;SDS_P2;PMS_P1;PMS_P2;Temp;Humidity;BMP_temperature;BMP_pressure;BME280_temperature;BME280_humidity;BME280_pressure;Samples;Min_cycle;Max_cycle;Signal;HPM_P1;HPM_P2
2024/01/03 00:04:56;;;;;;;9.50;5.00;;;;;;;7.26;100.00;99529.25;31501451;28;20482;-80
2024/01/03 00:19:58;;;;;;;9.20;4.07;;;;;;;6.94;100.00;99532.41;31493928;28;20562;-81
2024/01/03 00:35:01;;;;;;;7.13;3.90;;;;;;;6.75;100.00;99547.31;31487566;28;20056;-81
2024/01/03 00:50:03;;;;;;;7.60;3.97;;;;;;;6.64;100.00;99557.44;31491200;28;20407;-81
2024/01/03 01:05:06;;;;;;;7.63;4.07;;;;;;;6.65;100.00;99575.16;31496276;28;20049;-78
2024/01/03 01:20:08;;;;;;;7.10;4.03;;;;;;;6.50;100.00;99585.38;31497980;28;20064;-80
2024/01/03 01:35:10;;;;;;;8.10;4.53;;;;;;;6.21;100.00;99584.91;31498853;28;20495;-80
2024/01/03 01:50:13;;;;;;;7.80;4.73;;;;;;;6.18;100.00;99585.69;31483983;28;20144;-81
2024/01/03 02:05:17;;;;;;;5.97;4.30;;;;;;;5.97;100.00;99600.16;31469326;28;20106;-80
2024/01/03 02:20:19;;;;;;;7.43;4.23;;;;;;;5.54;100.00;99599.69;31484981;28;20415;-79
2024/01/03 02:35:21;;;;;;;7.33;3.70;;;;;;;5.22;100.00;99607.22;31486112;28;20110;-80
2024/01/03 02:50:23;;;;;;;7.50;4.23;;;;;;;5.11;100.00;99624.19;31483655;28;20056;-80
2024/01/03 03:05:25;;;;;;;9.60;4.73;;;;;;;4.98;100.00;99630.41;31493838;28;20052;-80
2024/01/03 03:20:27;;;;;;;8.33;4.97;;;;;;;4.84;100.00;99639.31;31519767;28;20582;-81
2024/01/03 03:35:30;;;;;;;10.17;5.63;;;;;;;4.96;100.00;99649.63;31507496;28;20051;-80
2024/01/03 03:50:32;;;;;;;14.03;5.73;;;;;;;5.05;100.00;99674.19;31501323;28;20060;-81
2024/01/03 04:05:36;;;;;;;9.30;5.63;;;;;;;5.03;100.00;99687.25;31500066;28;20524;-80
2024/01/03 04:20:39;;;;;;;10.57;5.43;;;;;;;4.97;100.00;99698.81;31514532;28;20098;-81
2024/01/03 04:35:41;;;;;;;14.73;5.67;;;;;;;5.01;100.00;99703.03;31495976;28;20434;-81
2024/01/03 04:50:43;;;;;;;9.33;4.43;;;;;;;4.82;100.00;99718.84;31504627;28;20097;-81
2024/01/03 05:05:45;;;;;;;13.20;7.20;;;;;;;3.73;100.00;99727.34;31491745;28;20048;-81
2024/01/03 05:20:47;;;;;;;8.97;4.83;;;;;;;4.24;100.00;99738.91;31490915;28;20056;-80
2024/01/03 05:35:49;;;;;;;12.00;5.43;;;;;;;4.40;100.00;99756.16;31486612;28;20051;-80
2024/01/03 05:50:54;;;;;;;9.03;4.83;;;;;;;4.80;100.00;99775.69;31481648;28;20078;-81
2024/01/03 06:05:56;;;;;;;11.10;6.17;;;;;;;5.39;100.00;99786.72;31477259;28;20583;-81
2024/01/03 06:20:59;;;;;;;15.97;6.20;;;;;;;4.68;100.00;99784.19;31492859;28;20470;-80
2024/01/03 06:36:01;;;;;;;14.13;7.17;;;;;;;4.15;100.00;99776.88;31484198;28;20052;-81
2024/01/03 06:51:04;;;;;;;14.37;7.27;;;;;;;6.64;100.00;99778.63;31494028;28;20135;-79
2024/01/03 07:06:06;;;;;;;11.20;5.60;;;;;;;8.86;74.32;99763.31;31501754;28;20505;-82
2024/01/03 07:21:08;;;;;;;11.17;4.87;;;;;;;10.08;67.19;99783.28;31484852;28;20056;-78
2024/01/03 07:36:11;;;;;;;10.87;4.70;;;;;;;10.37;58.65;99772.56;31493937;28;20044;-80
2024/01/03 07:51:18;;;;;;;12.40;6.20;;;;;;;10.06;57.89;99796.50;31520799;28;20086;-80
2024/01/03 08:06:20;;;;;;;13.93;6.43;;;;;;;9.59;63.95;99802.16;31504191;28;20048;-80
2024/01/03 08:21:23;;;;;;;10.57;5.53;;;;;;;9.26;63.37;99793.13;31497546;28;20061;-80
2024/01/03 08:36:38;;;;;;;11.17;5.37;;;;;;;10.38;56.76;99766.72;31503126;28;20051;-84
2024/01/03 08:51:45;;;;;;;10.47;6.10;;;;;;;10.36;55.82;99766.38;31487533;28;20053;-81
2024/01/03 09:06:47;;;;;;;12.87;5.67;;;;;;;10.91;54.63;99761.88;31555785;28;20164;-83
2024/01/03 09:21:50;;;;;;;13.80;5.87;;;;;;;11.67;51.26;99732.19;31493016;28;20061;-83
2024/01/03 09:36:55;;;;;;;15.20;6.57;;;;;;;12.23;48.96;99704.44;31504489;28;20041;-89
2024/01/03 09:51:58;;;;;;;11.70;5.67;;;;;;;14.04;47.72;99692.38;31498185;28;20049;-86
2024/01/03 10:07:01;;;;;;;11.03;4.87;;;;;;;11.22;49.59;99667.13;31509306;28;20052;-82
2024/01/03 10:22:04;;;;;;;11.83;5.70;;;;;;;11.93;48.96;99627.66;31526832;28;20408;-83
2024/01/03 10:37:06;;;;;;;9.43;4.73;;;;;;;12.98;48.53;99599.09;31507243;28;20044;-81
2024/01/03 10:52:10;;;;;;;7.73;4.50;;;;;;;11.64;46.87;99599.81;31511467;28;20052;-87
2024/01/03 11:07:20;;;;;;;8.67;4.60;;;;;;;10.69;52.59;99587.16;31506605;28;20139;-81
2024/01/03 11:22:22;;;;;;;7.07;4.57;;;;;;;9.39;56.22;99571.91;31507272;28;20056;-84
2024/01/03 11:37:30;;;;;;;10.70;4.30;;;;;;;8.84;68.24;99553.78;31538842;28;20420;-82
2024/01/03 11:52:34;;;;;;;10.73;4.83;;;;;;;8.76;68.74;99546.97;31501475;28;20104;-81
2024/01/03 12:07:37;;;;;;;11.37;4.87;;;;;;;7.40;82.44;99531.72;31508971;28;20045;-82
2024/01/03 12:22:40;;;;;;;10.00;4.77;;;;;;;7.95;82.41;99519.59;31505795;28;20048;-81
2024/01/03 12:37:47;;;;;;;14.70;5.50;;;;;;;7.45;85.64;99498.84;31498113;28;20041;-79
2024/01/03 12:52:53;;;;;;;17.07;5.60;;;;;;;6.76;92.54;99501.03;31494438;28;20049;-82
2024/01/03 13:08:47;;;;;;;13.73;5.83;;;;;;;7.10;82.26;99500.16;31498318;28;20493;-80
2024/01/03 13:23:52;;;;;;;9.50;5.33;;;;;;;6.38;95.80;99476.09;31464636;28;20048;-84
2024/01/03 13:38:54;;;;;;;10.73;5.57;;;;;;;6.04;100.00;99478.06;31516499;28;20044;-81
2024/01/03 13:53:59;;;;;;;11.47;5.47;;;;;;;6.67;100.00;99478.44;31468869;28;20057;-83
2024/01/03 14:09:01;;;;;;;8.50;4.70;;;;;;;5.86;100.00;99477.47;31498165;28;20055;-85
2024/01/03 14:24:07;;;;;;;12.27;5.22;;;;;;;5.76;100.00;99463.72;31489304;28;20049;-83
2024/01/03 14:39:10;;;;;;;10.13;5.20;;;;;;;5.63;100.00;99440.41;31484547;28;20049;-84
2024/01/03 14:54:12;;;;;;;8.97;5.07;;;;;;;5.69;100.00;99420.69;31491614;28;20064;-80
2024/01/03 15:09:15;;;;;;;12.17;5.57;;;;;;;5.56;100.00;99373.91;31503691;28;20080;-82
2024/01/03 15:24:17;;;;;;;24.73;7.43;;;;;;;5.58;100.00;99363.50;31495305;28;20491;-81
2024/01/03 15:39:19;;;;;;;12.53;6.43;;;;;;;5.64;100.00;99347.69;31504624;28;20041;-83
2024/01/03 15:54:21;;;;;;;18.83;9.40;;;;;;;5.43;100.00;99300.25;31495021;28;20048;-80
2024/01/03 16:09:37;;;;;;;20.97;9.90;;;;;;;5.49;100.00;99267.06;31549798;28;20053;-81
2024/01/03 16:24:40;;;;;;;26.70;10.60;;;;;;;5.34;100.00;99221.91;31502050;28;20056;-81
2024/01/03 16:39:42;;;;;;;15.37;8.27;;;;;;;5.39;100.00;99205.31;31501417;28;20094;-82
2024/01/03 16:54:45;;;;;;;18.37;9.67;;;;;;;5.61;100.00;99179.63;31495361;28;20049;-85
2024/01/03 17:09:47;;;;;;;17.67;7.63;;;;;;;5.83;100.00;99145.81;31500294;28;20055;-83
2024/01/03 17:24:54;;;;;;;12.10;6.47;;;;;;;6.68;100.00;99105.06;31568133;28;20041;-83
2024/01/03 17:39:56;;;;;;;10.93;5.93;;;;;;;6.20;100.00;99084.78;31451159;28;20518;-82
2024/01/03 17:54:59;;;;;;;16.83;7.63;;;;;;;6.84;100.00;99045.78;31476747;28;20045;-85
2024/01/03 18:10:01;;;;;;;13.00;6.80;;;;;;;6.42;100.00;99026.59;31484396;28;20059;-84
2024/01/03 18:25:04;;;;;;;16.90;6.77;;;;;;;6.63;100.00;98981.50;31484062;28;20467;-87
2024/01/03 18:40:08;;;;;;;18.70;8.17;;;;;;;7.22;100.00;98953.56;31482316;28;20060;-84
2024/01/03 18:55:10;;;;;;;11.20;6.17;;;;;;;7.16;100.00;98904.72;31479998;28;20050;-82
2024/01/03 19:10:14;;;;;;;14.33;7.33;;;;;;;7.30;100.00;98841.53;31523503;28;20100;-84
2024/01/03 19:25:16;;;;;;;13.07;6.07;;;;;;;8.76;100.00;98832.59;31455232;28;20530;-85
2024/01/03 19:40:18;;;;;;;17.47;6.70;;;;;;;8.88;100.00;98846.13;31485249;28;20045;-86
2024/01/03 19:55:21;;;;;;;14.37;5.93;;;;;;;8.64;100.00;98798.97;31515184;28;20048;-84
2024/01/03 20:10:23;;;;;;;11.90;5.60;;;;;;;8.61;100.00;98767.41;31478027;28;20048;-85
2024/01/03 20:25:25;;;;;;;10.67;4.97;;;;;;;8.21;100.00;98729.28;31484113;28;20086;-84
2024/01/03 20:40:27;;;;;;;9.60;4.93;;;;;;;9.02;100.00;98697.97;31502106;28;20064;-80
2024/01/03 20:55:29;;;;;;;10.70;4.53;;;;;;;9.23;100.00;98673.56;31484636;28;20087;-83
2024/01/03 21:10:31;;;;;;;15.17;4.97;;;;;;;9.44;100.00;98666.63;31481473;28;20053;-81
2024/01/03 21:25:33;;;;;;;7.30;3.53;;;;;;;9.49;100.00;98632.75;31494347;28;20048;-82
2024/01/03 21:40:36;;;;;;;10.07;4.70;;;;;;;9.51;100.00;98608.69;31479512;28;20103;-82
2024/01/03 21:55:39;;;;;;;7.73;3.63;;;;;;;9.55;100.00;98564.03;31483199;28;20474;-80
2024/01/03 22:10:41;;;;;;;9.23;5.03;;;;;;;9.68;100.00;98563.16;31505769;28;20048;-82
2024/01/03 22:25:45;;;;;;;17.80;6.10;;;;;;;9.86;100.00;98563.94;31484992;28;20075;-81
2024/01/03 22:40:47;;;;;;;11.80;6.33;;;;;;;10.10;100.00;98549.78;31409865;28;20480;-82
2024/01/03 22:55:49;;;;;;;9.67;5.03;;;;;;;10.77;100.00;98546.88;31447801;28;20132;-81
2024/01/03 23:10:51;;;;;;;10.57;4.70;;;;;;;11.05;100.00;98538.63;31539751;28;20056;-80
2024/01/03 23:25:53;;;;;;;10.50;4.50;;;;;;;10.82;100.00;98531.94;31484554;28;20044;-81
2024/01/03 23:40:55;;;;;;;9.73;4.80;;;;;;;10.89;100.00;98526.91;31527400;28;20083;-82
2024/01/03 23:55:57;;;;;;;14.83;5.17;;;;;;;10.94;100.00;98520.09;31506271;28;20052;-81
